sensor_id;sensor_type;location;lat;lon;timestamp;temperature;humidity
24452;DHT22;13350;50.984;5.822;2023-08-08T00:00:20;13.40;99.90
24452;DHT22;13350;50.984;5.822;2023-08-08T00:02:49;13.40;99.90
24452;DHT22;13350;50.984;5.822;2023-08-08T00:05:16;13.50;99.90
24452;DHT22;13350;50.984;5.822;2023-08-08T00:07:43;13.50;99.90
24452;DHT22;13350;50.984;5.822;2023-08-08T00:10:10;13.50;99.90
24452;DHT22;13350;50.984;5.822;2023-08-08T00:12:37;13.60;99.90
24452;DHT22;13350;50.984;5.822;2023-08-08T00:15:05;13.80;99.90
24452;DHT22;13350;50.984;5.822;2023-08-08T00:17:32;13.70;99.90
24452;DHT22;13350;50.984;5.822;2023-08-08T00:20:01;13.90;99.90
24452;DHT22;13350;50.984;5.822;2023-08-08T00:22:28;13.80;99.90
24452;DHT22;13350;50.984;5.822;2023-08-08T00:24:56;13.80;99.90
24452;DHT22;13350;50.984;5.822;2023-08-08T00:27:23;13.90;99.90
24452;DHT22;13350;50.984;5.822;2023-08-08T00:29:50;14.00;99.90
24452;DHT22;13350;50.984;5.822;2023-08-08T00:32:18;13.90;99.90
24452;DHT22;13350;50.984;5.822;2023-08-08T00:34:45;14.00;99.90
24452;DHT22;13350;50.984;5.822;2023-08-08T00:37:14;13.90;99.90
24452;DHT22;13350;50.984;5.822;2023-08-08T00:39:41;13.80;99.90
24452;DHT22;13350;50.984;5.822;2023-08-08T00:42:11;13.80;99.90
24452;DHT22;13350;50.984;5.822;2023-08-08T00:44:38;13.70;99.90
24452;DHT22;13350;50.984;5.822;2023-08-08T00:47:06;13.70;99.90
24452;DHT22;13350;50.984;5.822;2023-08-08T00:49:33;13.70;99.90
24452;DHT22;13350;50.984;5.822;2023-08-08T00:52:00;13.70;99.90
24452;DHT22;13350;50.984;5.822;2023-08-08T00:54:29;13.60;99.90
24452;DHT22;13350;50.984;5.822;2023-08-08T00:56:56;13.50;99.90
24452;DHT22;13350;50.984;5.822;2023-08-08T00:59:23;13.40;99.90
24452;DHT22;13350;50.984;5.822;2023-08-08T01:01:50;13.40;99.90
24452;DHT22;13350;50.984;5.822;2023-08-08T01:04:19;13.30;99.90
24452;DHT22;13350;50.984;5.822;2023-08-08T01:06:48;13.20;99.90
24452;DHT22;13350;50.984;5.822;2023-08-08T01:09:20;13.20;99.90
24452;DHT22;13350;50.984;5.822;2023-08-08T01:11:50;13.10;99.90
24452;DHT22;13350;50.984;5.822;2023-08-08T01:14:18;13.10;99.90
24452;DHT22;13350;50.984;5.822;2023-08-08T01:16:46;13.00;99.90
24452;DHT22;13350;50.984;5.822;2023-08-08T01:19:15;13.00;99.90
24452;DHT22;13350;50.984;5.822;2023-08-08T01:21:45;13.00;99.90
24452;DHT22;13350;50.984;5.822;2023-08-08T01:24:18;12.90;99.90
24452;DHT22;13350;50.984;5.822;2023-08-08T01:26:45;12.90;99.90
24452;DHT22;13350;50.984;5.822;2023-08-08T01:29:12;13.00;99.90
24452;DHT22;13350;50.984;5.822;2023-08-08T01:31:39;12.90;99.90
24452;DHT22;13350;50.984;5.822;2023-08-08T01:34:06;13.00;99.90
24452;DHT22;13350;50.984;5.822;2023-08-08T01:36:35;13.00;99.90
24452;DHT22;13350;50.984;5.822;2023-08-08T01:39:05;12.90;99.90
24452;DHT22;13350;50.984;5.822;2023-08-08T01:41:37;12.80;99.90
24452;DHT22;13350;50.984;5.822;2023-08-08T01:44:05;12.90;99.90
24452;DHT22;13350;50.984;5.822;2023-08-08T01:46:32;12.90;99.90
24452;DHT22;13350;50.984;5.822;2023-08-08T01:49:00;13.00;99.90
24452;DHT22;13350;50.984;5.822;2023-08-08T01:51:27;13.00;99.90
24452;DHT22;13350;50.984;5.822;2023-08-08T01:53:54;13.00;99.90
24452;DHT22;13350;50.984;5.822;2023-08-08T01:56:21;13.00;99.90
24452;DHT22;13350;50.984;5.822;2023-08-08T01:58:49;13.00;99.90
24452;DHT22;13350;50.984;5.822;2023-08-08T02:01:16;13.10;99.90
24452;DHT22;13350;50.984;5.822;2023-08-08T02:03:43;13.00;99.90
24452;DHT22;13350;50.984;5.822;2023-08-08T02:06:10;13.10;99.90
24452;DHT22;13350;50.984;5.822;2023-08-08T02:08:37;13.00;99.90
24452;DHT22;13350;50.984;5.822;2023-08-08T02:11:05;13.00;99.90
24452;DHT22;13350;50.984;5.822;2023-08-08T02:13:32;13.00;99.90
24452;DHT22;13350;50.984;5.822;2023-08-08T02:16:00;13.00;99.90
24452;DHT22;13350;50.984;5.822;2023-08-08T02:18:27;13.10;99.90
24452;DHT22;13350;50.984;5.822;2023-08-08T02:20:54;13.10;99.90
24452;DHT22;13350;50.984;5.822;2023-08-08T02:23:21;13.10;99.90
24452;DHT22;13350;50.984;5.822;2023-08-08T02:25:48;13.00;99.90
24452;DHT22;13350;50.984;5.822;2023-08-08T02:28:15;13.10;99.90
24452;DHT22;13350;50.984;5.822;2023-08-08T02:30:42;13.00;99.90
24452;DHT22;13350;50.984;5.822;2023-08-08T02:33:11;13.10;99.90
24452;DHT22;13350;50.984;5.822;2023-08-08T02:35:38;13.00;99.90
24452;DHT22;13350;50.984;5.822;2023-08-08T02:38:05;13.10;99.90
24452;DHT22;13350;50.984;5.822;2023-08-08T02:40:32;13.10;99.90
24452;DHT22;13350;50.984;5.822;2023-08-08T02:42:59;13.10;99.90
24452;DHT22;13350;50.984;5.822;2023-08-08T02:45:26;13.10;99.90
24452;DHT22;13350;50.984;5.822;2023-08-08T02:47:53;13.00;99.90
24452;DHT22;13350;50.984;5.822;2023-08-08T02:50:21;13.00;99.90
24452;DHT22;13350;50.984;5.822;2023-08-08T02:52:48;13.00;99.90
24452;DHT22;13350;50.984;5.822;2023-08-08T02:55:15;13.10;99.90
24452;DHT22;13350;50.984;5.822;2023-08-08T02:57:42;13.00;99.90
24452;DHT22;13350;50.984;5.822;2023-08-08T03:00:10;13.00;99.90
24452;DHT22;13350;50.984;5.822;2023-08-08T03:02:37;13.00;99.90
24452;DHT22;13350;50.984;5.822;2023-08-08T03:05:05;13.00;99.90
24452;DHT22;13350;50.984;5.822;2023-08-08T03:07:33;13.00;99.90
24452;DHT22;13350;50.984;5.822;2023-08-08T03:10:01;13.10;99.90
24452;DHT22;13350;50.984;5.822;2023-08-08T03:12:28;13.10;99.90
24452;DHT22;13350;50.984;5.822;2023-08-08T03:14:55;13.00;99.90
24452;DHT22;13350;50.984;5.822;2023-08-08T03:17:23;13.00;99.90
24452;DHT22;13350;50.984;5.822;2023-08-08T03:19:50;13.00;99.90
24452;DHT22;13350;50.984;5.822;2023-08-08T03:22:17;13.00;99.90
24452;DHT22;13350;50.984;5.822;2023-08-08T03:24:46;13.00;99.90
24452;DHT22;13350;50.984;5.822;2023-08-08T03:27:13;13.00;99.90
24452;DHT22;13350;50.984;5.822;2023-08-08T03:29:40;13.00;99.90
24452;DHT22;13350;50.984;5.822;2023-08-08T03:32:07;13.00;99.90
24452;DHT22;13350;50.984;5.822;2023-08-08T03:34:34;13.00;99.90
24452;DHT22;13350;50.984;5.822;2023-08-08T03:37:01;12.90;99.90
24452;DHT22;13350;50.984;5.822;2023-08-08T03:39:28;13.00;99.90
24452;DHT22;13350;50.984;5.822;2023-08-08T03:41:57;12.90;99.90
24452;DHT22;13350;50.984;5.822;2023-08-08T03:44:24;12.90;99.90
24452;DHT22;13350;50.984;5.822;2023-08-08T03:46:51;13.00;99.90
24452;DHT22;13350;50.984;5.822;2023-08-08T03:49:18;13.00;99.90
24452;DHT22;13350;50.984;5.822;2023-08-08T03:51:45;12.90;99.90
24452;DHT22;13350;50.984;5.822;2023-08-08T03:54:14;12.90;99.90
24452;DHT22;13350;50.984;5.822;2023-08-08T03:56:41;12.90;99.90
24452;DHT22;13350;50.984;5.822;2023-08-08T03:59:09;12.90;99.90
24452;DHT22;13350;50.984;5.822;2023-08-08T04:01:36;12.90;99.90
24452;DHT22;13350;50.984;5.822;2023-08-08T04:04:04;12.90;99.90
24452;DHT22;13350;50.984;5.822;2023-08-08T04:06:31;12.90;99.90
24452;DHT22;13350;50.984;5.822;2023-08-08T04:08:58;12.80;99.90
24452;DHT22;13350;50.984;5.822;2023-08-08T04:11:26;12.80;99.90
24452;DHT22;13350;50.984;5.822;2023-08-08T04:13:53;12.80;99.90
24452;DHT22;13350;50.984;5.822;2023-08-08T04:16:21;12.80;99.90
24452;DHT22;13350;50.984;5.822;2023-08-08T04:18:48;12.80;99.90
24452;DHT22;13350;50.984;5.822;2023-08-08T04:21:15;12.70;99.90
24452;DHT22;13350;50.984;5.822;2023-08-08T04:23:42;12.70;99.90
24452;DHT22;13350;50.984;5.822;2023-08-08T04:26:10;12.60;99.90
24452;DHT22;13350;50.984;5.822;2023-08-08T04:28:37;12.60;99.90
24452;DHT22;13350;50.984;5.822;2023-08-08T04:31:04;12.60;99.90
24452;DHT22;13350;50.984;5.822;2023-08-08T04:33:32;12.60;99.90
24452;DHT22;13350;50.984;5.822;2023-08-08T04:35:59;12.50;99.90
24452;DHT22;13350;50.984;5.822;2023-08-08T04:38:26;12.60;99.90
24452;DHT22;13350;50.984;5.822;2023-08-08T04:40:53;12.60;99.90
24452;DHT22;13350;50.984;5.822;2023-08-08T04:43:20;12.60;99.90
24452;DHT22;13350;50.984;5.822;2023-08-08T04:45:47;12.60;99.90
24452;DHT22;13350;50.984;5.822;2023-08-08T04:48:14;12.60;99.90
24452;DHT22;13350;50.984;5.822;2023-08-08T04:50:43;12.60;99.90
24452;DHT22;13350;50.984;5.822;2023-08-08T04:53:10;12.70;99.90
24452;DHT22;13350;50.984;5.822;2023-08-08T04:55:37;12.70;99.90
24452;DHT22;13350;50.984;5.822;2023-08-08T04:58:04;12.60;99.90
24452;DHT22;13350;50.984;5.822;2023-08-08T05:00:32;12.70;99.90
24452;DHT22;13350;50.984;5.822;2023-08-08T05:02:59;12.70;99.90
24452;DHT22;13350;50.984;5.822;2023-08-08T05:05:26;12.60;99.90
24452;DHT22;13350;50.984;5.822;2023-08-08T05:07:55;12.70;99.90
24452;DHT22;13350;50.984;5.822;2023-08-08T05:10:22;12.70;99.90
24452;DHT22;13350;50.984;5.822;2023-08-08T05:12:49;12.70;99.90
24452;DHT22;13350;50.984;5.822;2023-08-08T05:15:16;12.70;99.90
24452;DHT22;13350;50.984;5.822;2023-08-08T05:17:43;12.70;99.90
24452;DHT22;13350;50.984;5.822;2023-08-08T05:20:10;12.70;99.90
24452;DHT22;13350;50.984;5.822;2023-08-08T05:22:37;12.70;99.90
24452;DHT22;13350;50.984;5.822;2023-08-08T05:25:06;12.70;99.90
24452;DHT22;13350;50.984;5.822;2023-08-08T05:27:34;12.80;99.90
24452;DHT22;13350;50.984;5.822;2023-08-08T05:30:01;12.80;99.90
24452;DHT22;13350;50.984;5.822;2023-08-08T05:32:28;12.90;99.90
24452;DHT22;13350;50.984;5.822;2023-08-08T05:34:56;12.90;99.90
24452;DHT22;13350;50.984;5.822;2023-08-08T05:37:23;12.90;99.90
24452;DHT22;13350;50.984;5.822;2023-08-08T05:39:50;13.00;99.90
24452;DHT22;13350;50.984;5.822;2023-08-08T05:42:19;13.20;99.90
24452;DHT22;13350;50.984;5.822;2023-08-08T05:44:46;13.30;99.90
24452;DHT22;13350;50.984;5.822;2023-08-08T05:47:13;13.40;99.90
24452;DHT22;13350;50.984;5.822;2023-08-08T05:49:40;13.40;99.90
24452;DHT22;13350;50.984;5.822;2023-08-08T05:52:08;13.50;99.90
24452;DHT22;13350;50.984;5.822;2023-08-08T05:54:35;13.90;99.90
24452;DHT22;13350;50.984;5.822;2023-08-08T05:57:02;14.20;99.90
24452;DHT22;13350;50.984;5.822;2023-08-08T05:59:31;14.50;99.90
24452;DHT22;13350;50.984;5.822;2023-08-08T06:01:58;14.60;99.90
24452;DHT22;13350;50.984;5.822;2023-08-08T06:04:25;14.70;99.90
24452;DHT22;13350;50.984;5.822;2023-08-08T06:06:52;15.00;99.90
24452;DHT22;13350;50.984;5.822;2023-08-08T06:09:19;15.30;99.90
24452;DHT22;13350;50.984;5.822;2023-08-08T06:11:46;15.70;99.90
24452;DHT22;13350;50.984;5.822;2023-08-08T06:14:14;15.20;99.90
24452;DHT22;13350;50.984;5.822;2023-08-08T06:16:43;14.70;99.90
24452;DHT22;13350;50.984;5.822;2023-08-08T06:19:10;14.40;99.90
24452;DHT22;13350;50.984;5.822;2023-08-08T06:21:37;14.20;99.90
24452;DHT22;13350;50.984;5.822;2023-08-08T06:24:04;14.20;99.90
24452;DHT22;13350;50.984;5.822;2023-08-08T06:26:31;14.50;99.90
24452;DHT22;13350;50.984;5.822;2023-08-08T06:28:59;15.20;99.90
24452;DHT22;13350;50.984;5.822;2023-08-08T06:31:26;15.30;99.90
24452;DHT22;13350;50.984;5.822;2023-08-08T06:33:54;15.00;99.90
24452;DHT22;13350;50.984;5.822;2023-08-08T06:36:22;15.20;99.90
24452;DHT22;13350;50.984;5.822;2023-08-08T06:38:49;15.50;99.90
24452;DHT22;13350;50.984;5.822;2023-08-08T06:41:16;15.40;99.90
24452;DHT22;13350;50.984;5.822;2023-08-08T06:43:43;16.00;99.90
24452;DHT22;13350;50.984;5.822;2023-08-08T06:46:10;16.30;99.90
24452;DHT22;13350;50.984;5.822;2023-08-08T06:48:37;16.40;99.90
24452;DHT22;13350;50.984;5.822;2023-08-08T06:51:05;16.60;99.90
24452;DHT22;13350;50.984;5.822;2023-08-08T06:53:32;15.90;99.90
24452;DHT22;13350;50.984;5.822;2023-08-08T06:55:59;16.60;99.90
24452;DHT22;13350;50.984;5.822;2023-08-08T06:58:26;16.70;99.90
24452;DHT22;13350;50.984;5.822;2023-08-08T07:00:53;17.00;99.90
24452;DHT22;13350;50.984;5.822;2023-08-08T07:03:21;17.20;99.90
24452;DHT22;13350;50.984;5.822;2023-08-08T07:05:47;17.10;99.90
24452;DHT22;13350;50.984;5.822;2023-08-08T07:08:18;16.60;99.90
24452;DHT22;13350;50.984;5.822;2023-08-08T07:10:45;17.00;99.90
24452;DHT22;13350;50.984;5.822;2023-08-08T07:13:12;16.60;99.90
24452;DHT22;13350;50.984;5.822;2023-08-08T07:15:41;16.50;99.90
24452;DHT22;13350;50.984;5.822;2023-08-08T07:18:08;16.50;99.90
24452;DHT22;13350;50.984;5.822;2023-08-08T07:20:35;16.70;99.90
24452;DHT22;13350;50.984;5.822;2023-08-08T07:23:02;17.00;99.90
24452;DHT22;13350;50.984;5.822;2023-08-08T07:25:30;16.80;99.90
24452;DHT22;13350;50.984;5.822;2023-08-08T07:27:57;16.70;99.90
24452;DHT22;13350;50.984;5.822;2023-08-08T07:30:24;16.60;99.90
24452;DHT22;13350;50.984;5.822;2023-08-08T07:32:52;16.60;99.90
24452;DHT22;13350;50.984;5.822;2023-08-08T07:35:19;16.60;99.90
24452;DHT22;13350;50.984;5.822;2023-08-08T07:37:46;16.60;99.90
24452;DHT22;13350;50.984;5.822;2023-08-08T07:40:13;16.50;99.90
24452;DHT22;13350;50.984;5.822;2023-08-08T07:42:42;16.40;99.90
24452;DHT22;13350;50.984;5.822;2023-08-08T07:45:09;16.50;99.90
24452;DHT22;13350;50.984;5.822;2023-08-08T07:47:36;16.80;99.90
24452;DHT22;13350;50.984;5.822;2023-08-08T07:50:03;17.00;99.90
24452;DHT22;13350;50.984;5.822;2023-08-08T07:52:32;17.10;99.90
24452;DHT22;13350;50.984;5.822;2023-08-08T07:54:59;16.80;99.90
24452;DHT22;13350;50.984;5.822;2023-08-08T07:59:54;17.00;99.90
24452;DHT22;13350;50.984;5.822;2023-08-08T08:02:21;17.00;99.90
24452;DHT22;13350;50.984;5.822;2023-08-08T08:04:48;17.30;99.90
24452;DHT22;13350;50.984;5.822;2023-08-08T08:07:15;17.40;99.90
24452;DHT22;13350;50.984;5.822;2023-08-08T08:09:42;17.20;99.90
24452;DHT22;13350;50.984;5.822;2023-08-08T08:12:10;17.40;99.90
24452;DHT22;13350;50.984;5.822;2023-08-08T08:14:37;17.30;99.90
24452;DHT22;13350;50.984;5.822;2023-08-08T08:17:06;17.50;99.90
24452;DHT22;13350;50.984;5.822;2023-08-08T08:19:34;17.60;99.90
24452;DHT22;13350;50.984;5.822;2023-08-08T08:22:01;17.70;99.90
24452;DHT22;13350;50.984;5.822;2023-08-08T08:24:28;17.50;99.90
24452;DHT22;13350;50.984;5.822;2023-08-08T08:26:55;17.20;99.90
24452;DHT22;13350;50.984;5.822;2023-08-08T08:29:22;17.30;99.90
24452;DHT22;13350;50.984;5.822;2023-08-08T08:31:49;17.30;99.90
24452;DHT22;13350;50.984;5.822;2023-08-08T08:34:18;17.50;99.90
24452;DHT22;13350;50.984;5.822;2023-08-08T08:36:45;17.30;99.90
24452;DHT22;13350;50.984;5.822;2023-08-08T08:39:12;17.20;99.90
24452;DHT22;13350;50.984;5.822;2023-08-08T08:41:39;17.30;99.90
24452;DHT22;13350;50.984;5.822;2023-08-08T08:44:06;17.60;99.90
24452;DHT22;13350;50.984;5.822;2023-08-08T08:46:33;17.10;99.90
24452;DHT22;13350;50.984;5.822;2023-08-08T08:49:02;17.00;99.90
24452;DHT22;13350;50.984;5.822;2023-08-08T08:51:31;17.10;99.90
24452;DHT22;13350;50.984;5.822;2023-08-08T08:53:58;17.10;99.90
24452;DHT22;13350;50.984;5.822;2023-08-08T08:56:25;17.10;99.90
24452;DHT22;13350;50.984;5.822;2023-08-08T08:58:52;17.30;99.90
24452;DHT22;13350;50.984;5.822;2023-08-08T09:01:19;17.50;99.90
24452;DHT22;13350;50.984;5.822;2023-08-08T09:03:48;17.70;99.90
24452;DHT22;13350;50.984;5.822;2023-08-08T09:06:15;18.40;99.90
24452;DHT22;13350;50.984;5.822;2023-08-08T09:08:46;18.70;99.90
24452;DHT22;13350;50.984;5.822;2023-08-08T09:11:13;19.00;99.90
24452;DHT22;13350;50.984;5.822;2023-08-08T09:13:40;19.20;99.90
24452;DHT22;13350;50.984;5.822;2023-08-08T09:16:07;19.40;99.90
24452;DHT22;13350;50.984;5.822;2023-08-08T09:18:34;19.40;99.90
24452;DHT22;13350;50.984;5.822;2023-08-08T09:21:03;19.00;99.90
24452;DHT22;13350;50.984;5.822;2023-08-08T09:23:30;18.90;99.90
24452;DHT22;13350;50.984;5.822;2023-08-08T09:25:59;19.00;99.90
24452;DHT22;13350;50.984;5.822;2023-08-08T09:28:26;18.90;99.90
24452;DHT22;13350;50.984;5.822;2023-08-08T09:30:53;18.80;99.90
24452;DHT22;13350;50.984;5.822;2023-08-08T09:33:21;18.50;99.90
24452;DHT22;13350;50.984;5.822;2023-08-08T09:35:48;18.40;99.90
24452;DHT22;13350;50.984;5.822;2023-08-08T09:38:15;18.50;99.90
24452;DHT22;13350;50.984;5.822;2023-08-08T09:40:42;18.30;99.90
24452;DHT22;13350;50.984;5.822;2023-08-08T09:43:11;17.70;99.90
24452;DHT22;13350;50.984;5.822;2023-08-08T09:45:38;17.70;99.90
24452;DHT22;13350;50.984;5.822;2023-08-08T09:48:07;17.80;99.90
24452;DHT22;13350;50.984;5.822;2023-08-08T09:50:34;17.90;99.90
24452;DHT22;13350;50.984;5.822;2023-08-08T09:53:02;18.40;99.90
24452;DHT22;13350;50.984;5.822;2023-08-08T09:55:29;19.10;99.90
24452;DHT22;13350;50.984;5.822;2023-08-08T09:57:57;19.00;99.90
24452;DHT22;13350;50.984;5.822;2023-08-08T10:00:25;18.80;99.90
24452;DHT22;13350;50.984;5.822;2023-08-08T10:02:53;18.30;99.90
24452;DHT22;13350;50.984;5.822;2023-08-08T10:05:21;18.30;99.90
24452;DHT22;13350;50.984;5.822;2023-08-08T10:07:48;18.60;99.90
24452;DHT22;13350;50.984;5.822;2023-08-08T10:10:15;19.20;99.90
24452;DHT22;13350;50.984;5.822;2023-08-08T10:12:44;20.00;99.90
24452;DHT22;13350;50.984;5.822;2023-08-08T10:15:11;19.90;99.90
24452;DHT22;13350;50.984;5.822;2023-08-08T10:17:40;20.70;99.90
24452;DHT22;13350;50.984;5.822;2023-08-08T10:20:09;20.70;99.90
24452;DHT22;13350;50.984;5.822;2023-08-08T10:22:37;20.70;99.90
24452;DHT22;13350;50.984;5.822;2023-08-08T10:25:05;20.30;99.90
24452;DHT22;13350;50.984;5.822;2023-08-08T10:27:32;20.40;99.90
24452;DHT22;13350;50.984;5.822;2023-08-08T10:30:03;20.10;99.90
24452;DHT22;13350;50.984;5.822;2023-08-08T10:32:37;20.10;99.90
24452;DHT22;13350;50.984;5.822;2023-08-08T10:35:07;20.10;99.90
24452;DHT22;13350;50.984;5.822;2023-08-08T10:37:34;20.20;99.90
24452;DHT22;13350;50.984;5.822;2023-08-08T10:40:02;19.80;99.90
24452;DHT22;13350;50.984;5.822;2023-08-08T10:42:33;19.50;99.90
24452;DHT22;13350;50.984;5.822;2023-08-08T10:45:09;19.60;99.90
24452;DHT22;13350;50.984;5.822;2023-08-08T10:47:36;20.00;99.90
24452;DHT22;13350;50.984;5.822;2023-08-08T10:50:04;20.10;99.90
24452;DHT22;13350;50.984;5.822;2023-08-08T10:52:37;19.90;99.90
24452;DHT22;13350;50.984;5.822;2023-08-08T10:55:06;19.90;99.90
24452;DHT22;13350;50.984;5.822;2023-08-08T10:57:50;20.10;99.90
24452;DHT22;13350;50.984;5.822;2023-08-08T11:00:18;20.10;99.90
24452;DHT22;13350;50.984;5.822;2023-08-08T11:02:45;19.80;99.90
24452;DHT22;13350;50.984;5.822;2023-08-08T11:05:13;20.20;99.90
24452;DHT22;13350;50.984;5.822;2023-08-08T11:07:42;20.70;99.90
24452;DHT22;13350;50.984;5.822;2023-08-08T11:10:09;21.10;99.90
24452;DHT22;13350;50.984;5.822;2023-08-08T11:12:36;21.30;99.90
24452;DHT22;13350;50.984;5.822;2023-08-08T11:15:04;21.20;99.90
24452;DHT22;13350;50.984;5.822;2023-08-08T11:17:31;20.90;99.90
24452;DHT22;13350;50.984;5.822;2023-08-08T11:19:58;21.00;99.90
24452;DHT22;13350;50.984;5.822;2023-08-08T11:22:27;21.80;99.90
24452;DHT22;13350;50.984;5.822;2023-08-08T11:24:55;22.30;99.90
24452;DHT22;13350;50.984;5.822;2023-08-08T11:27:28;23.50;99.90
24452;DHT22;13350;50.984;5.822;2023-08-08T11:29:56;22.50;99.90
24452;DHT22;13350;50.984;5.822;2023-08-08T11:32:23;21.00;99.90
24452;DHT22;13350;50.984;5.822;2023-08-08T11:34:50;20.40;99.90
24452;DHT22;13350;50.984;5.822;2023-08-08T11:37:18;19.90;99.90
24452;DHT22;13350;50.984;5.822;2023-08-08T11:39:45;19.30;99.90
24452;DHT22;13350;50.984;5.822;2023-08-08T11:42:13;19.30;99.90
24452;DHT22;13350;50.984;5.822;2023-08-08T11:44:41;18.90;99.90
24452;DHT22;13350;50.984;5.822;2023-08-08T11:47:08;18.60;99.90
24452;DHT22;13350;50.984;5.822;2023-08-08T11:49:44;18.50;99.90
24452;DHT22;13350;50.984;5.822;2023-08-08T11:52:12;18.50;99.90
24452;DHT22;13350;50.984;5.822;2023-08-08T11:54:39;18.40;99.90
24452;DHT22;13350;50.984;5.822;2023-08-08T11:57:06;18.50;99.90
24452;DHT22;13350;50.984;5.822;2023-08-08T11:59:35;18.50;99.90
24452;DHT22;13350;50.984;5.822;2023-08-08T12:02:02;18.40;99.90
24452;DHT22;13350;50.984;5.822;2023-08-08T12:04:29;18.30;99.90
24452;DHT22;13350;50.984;5.822;2023-08-08T12:07:02;18.40;99.90
24452;DHT22;13350;50.984;5.822;2023-08-08T12:09:30;18.40;99.90
24452;DHT22;13350;50.984;5.822;2023-08-08T12:11:59;18.40;99.90
24452;DHT22;13350;50.984;5.822;2023-08-08T12:14:26;18.70;99.90
24452;DHT22;13350;50.984;5.822;2023-08-08T12:16:55;18.60;99.90
24452;DHT22;13350;50.984;5.822;2023-08-08T12:19:23;18.30;99.90
24452;DHT22;13350;50.984;5.822;2023-08-08T12:21:50;18.00;99.90
24452;DHT22;13350;50.984;5.822;2023-08-08T12:24:18;17.90;99.90
24452;DHT22;13350;50.984;5.822;2023-08-08T12:26:45;17.70;99.90
24452;DHT22;13350;50.984;5.822;2023-08-08T12:29:12;17.50;99.90
24452;DHT22;13350;50.984;5.822;2023-08-08T12:31:39;17.30;99.90
24452;DHT22;13350;50.984;5.822;2023-08-08T12:34:08;17.20;99.90
24452;DHT22;13350;50.984;5.822;2023-08-08T12:36:35;17.30;99.90
24452;DHT22;13350;50.984;5.822;2023-08-08T12:39:03;17.30;99.90
24452;DHT22;13350;50.984;5.822;2023-08-08T12:41:30;17.40;99.90
24452;DHT22;13350;50.984;5.822;2023-08-08T12:43:57;17.30;99.90
24452;DHT22;13350;50.984;5.822;2023-08-08T12:46:24;17.20;99.90
24452;DHT22;13350;50.984;5.822;2023-08-08T12:48:51;17.20;99.90
24452;DHT22;13350;50.984;5.822;2023-08-08T12:51:20;17.30;99.90
24452;DHT22;13350;50.984;5.822;2023-08-08T12:53:47;17.60;99.90
24452;DHT22;13350;50.984;5.822;2023-08-08T12:56:14;18.00;99.90
24452;DHT22;13350;50.984;5.822;2023-08-08T12:58:41;19.30;99.90
24452;DHT22;13350;50.984;5.822;2023-08-08T13:01:08;20.60;99.90
24452;DHT22;13350;50.984;5.822;2023-08-08T13:03:36;21.10;99.90
24452;DHT22;13350;50.984;5.822;2023-08-08T13:06:03;20.00;99.90
24452;DHT22;13350;50.984;5.822;2023-08-08T13:08:32;19.50;99.90
24452;DHT22;13350;50.984;5.822;2023-08-08T13:10:59;19.60;99.90
24452;DHT22;13350;50.984;5.822;2023-08-08T13:13:26;19.90;99.90
24452;DHT22;13350;50.984;5.822;2023-08-08T13:15:53;19.90;99.90
24452;DHT22;13350;50.984;5.822;2023-08-08T13:18:20;19.60;99.90
24452;DHT22;13350;50.984;5.822;2023-08-08T13:20:47;19.60;99.90
24452;DHT22;13350;50.984;5.822;2023-08-08T13:23:14;20.40;99.90
24452;DHT22;13350;50.984;5.822;2023-08-08T13:25:43;20.80;99.90
24452;DHT22;13350;50.984;5.822;2023-08-08T13:28:11;20.60;99.90
24452;DHT22;13350;50.984;5.822;2023-08-08T13:30:40;21.10;99.90
24452;DHT22;13350;50.984;5.822;2023-08-08T13:33:08;20.90;99.90
24452;DHT22;13350;50.984;5.822;2023-08-08T13:35:35;21.20;99.90
24452;DHT22;13350;50.984;5.822;2023-08-08T13:38:02;22.00;99.90
24452;DHT22;13350;50.984;5.822;2023-08-08T13:40:30;22.80;99.90
24452;DHT22;13350;50.984;5.822;2023-08-08T13:42:58;22.20;99.90
24452;DHT22;13350;50.984;5.822;2023-08-08T13:45:25;21.30;99.90
24452;DHT22;13350;50.984;5.822;2023-08-08T13:47:52;20.90;99.90
24452;DHT22;13350;50.984;5.822;2023-08-08T13:50:19;21.20;99.90
24452;DHT22;13350;50.984;5.822;2023-08-08T13:52:47;22.10;99.90
24452;DHT22;13350;50.984;5.822;2023-08-08T13:55:14;22.50;99.90
24452;DHT22;13350;50.984;5.822;2023-08-08T13:57:41;22.10;99.90
24452;DHT22;13350;50.984;5.822;2023-08-08T14:00:10;22.00;99.90
24452;DHT22;13350;50.984;5.822;2023-08-08T14:02:38;21.80;99.90
24452;DHT22;13350;50.984;5.822;2023-08-08T14:05:05;21.90;99.90
24452;DHT22;13350;50.984;5.822;2023-08-08T14:07:33;21.60;99.90
24452;DHT22;13350;50.984;5.822;2023-08-08T14:10:00;21.10;99.90
24452;DHT22;13350;50.984;5.822;2023-08-08T14:12:28;20.90;99.90
24452;DHT22;13350;50.984;5.822;2023-08-08T14:14:55;20.80;99.90
24452;DHT22;13350;50.984;5.822;2023-08-08T14:17:23;21.10;99.90
24452;DHT22;13350;50.984;5.822;2023-08-08T14:19:50;21.80;99.90
24452;DHT22;13350;50.984;5.822;2023-08-08T14:22:17;22.00;99.90
24452;DHT22;13350;50.984;5.822;2023-08-08T14:24:44;22.30;99.90
24452;DHT22;13350;50.984;5.822;2023-08-08T14:27:11;22.40;99.90
24452;DHT22;13350;50.984;5.822;2023-08-08T14:29:38;21.80;99.90
24452;DHT22;13350;50.984;5.822;2023-08-08T14:32:06;21.60;99.90
24452;DHT22;13350;50.984;5.822;2023-08-08T14:34:34;22.20;99.90
24452;DHT22;13350;50.984;5.822;2023-08-08T14:37:03;22.20;99.90
24452;DHT22;13350;50.984;5.822;2023-08-08T14:39:31;21.20;99.90
24452;DHT22;13350;50.984;5.822;2023-08-08T14:41:58;21.20;99.90
24452;DHT22;13350;50.984;5.822;2023-08-08T14:44:25;21.90;99.90
24452;DHT22;13350;50.984;5.822;2023-08-08T14:46:52;23.20;99.90
24452;DHT22;13350;50.984;5.822;2023-08-08T14:49:19;24.20;99.90
24452;DHT22;13350;50.984;5.822;2023-08-08T14:51:48;24.30;99.90
24452;DHT22;13350;50.984;5.822;2023-08-08T14:54:15;23.20;99.90
24452;DHT22;13350;50.984;5.822;2023-08-08T14:56:42;22.10;99.90
24452;DHT22;13350;50.984;5.822;2023-08-08T14:59:09;21.20;99.90
24452;DHT22;13350;50.984;5.822;2023-08-08T15:01:37;21.70;99.90
24452;DHT22;13350;50.984;5.822;2023-08-08T15:04:04;22.20;99.90
24452;DHT22;13350;50.984;5.822;2023-08-08T15:06:31;22.60;99.90
24452;DHT22;13350;50.984;5.822;2023-08-08T15:09:00;22.80;99.90
24452;DHT22;13350;50.984;5.822;2023-08-08T15:11:28;22.50;99.90
24452;DHT22;13350;50.984;5.822;2023-08-08T15:13:55;22.50;99.90
24452;DHT22;13350;50.984;5.822;2023-08-08T15:16:22;22.00;99.90
24452;DHT22;13350;50.984;5.822;2023-08-08T15:18:49;21.20;99.90
24452;DHT22;13350;50.984;5.822;2023-08-08T15:21:19;20.70;99.90
24452;DHT22;13350;50.984;5.822;2023-08-08T15:23:46;20.80;99.90
24452;DHT22;13350;50.984;5.822;2023-08-08T15:26:15;20.90;99.90
24452;DHT22;13350;50.984;5.822;2023-08-08T15:28:45;20.80;99.90
24452;DHT22;13350;50.984;5.822;2023-08-08T15:31:12;20.70;99.90
24452;DHT22;13350;50.984;5.822;2023-08-08T15:33:39;20.60;99.90